sensor_id;sensor_type;location;lat;lon;timestamp;pressure;altitude;pressure_sealevel;temperature;humidity
34081;BME280;20358;50.272;19.026;2023-05-10T00:00:43;98488.19;;;7.19;46.16
34081;BME280;20358;50.272;19.026;2023-05-10T00:03:48;98481.44;;;7.15;46.44
34081;BME280;20358;50.272;19.026;2023-05-10T00:06:55;98457.75;;;7.01;46.36
34081;BME280;20358;50.272;19.026;2023-05-10T00:10:01;98485.38;;;7.08;46.61
34081;BME280;20358;50.272;19.026;2023-05-10T00:13:08;98472.59;;;7.02;46.62
34081;BME280;20358;50.272;19.026;2023-05-10T00:16:16;98471.09;;;6.98;47.17
34081;BME280;20358;50.272;19.026;2023-05-10T00:19:23;98463.91;;;6.86;47.60
34081;BME280;20358;50.272;19.026;2023-05-10T00:22:28;98470.88;;;6.87;47.53
34081;BME280;20358;50.272;19.026;2023-05-10T00:25:35;98472.91;;;6.82;47.10
34081;BME280;20358;50.272;19.026;2023-05-10T00:28:40;98467.81;;;6.79;47.26
34081;BME280;20358;50.272;19.026;2023-05-10T00:31:50;98469.84;;;6.73;47.50
34081;BME280;20358;50.272;19.026;2023-05-10T00:34:55;98468.50;;;6.66;47.53
34081;BME280;20358;50.272;19.026;2023-05-10T00:38:02;98465.31;;;6.61;47.83
34081;BME280;20358;50.272;19.026;2023-05-10T00:41:07;98462.84;;;6.58;47.80
34081;BME280;20358;50.272;19.026;2023-05-10T00:44:15;98457.88;;;6.54;47.90
34081;BME280;20358;50.272;19.026;2023-05-10T00:47:24;98371.09;;;5.96;48.32
34081;BME280;20358;50.272;19.026;2023-05-10T00:50:32;98457.50;;;6.44;47.73
34081;BME280;20358;50.272;19.026;2023-05-10T00:53:39;98461.25;;;6.40;48.03
34081;BME280;20358;50.272;19.026;2023-05-10T00:56:46;98451.09;;;6.34;48.62
34081;BME280;20358;50.272;19.026;2023-05-10T00:59:52;98452.22;;;6.30;48.55
34081;BME280;20358;50.272;19.026;2023-05-10T01:03:02;98455.84;;;6.28;48.49
34081;BME280;20358;50.272;19.026;2023-05-10T01:06:08;98457.78;;;6.24;48.52
34081;BME280;20358;50.272;19.026;2023-05-10T01:09:15;98451.94;;;6.19;48.48
34081;BME280;20358;50.272;19.026;2023-05-10T01:12:21;98447.03;;;6.13;48.72
34081;BME280;20358;50.272;19.026;2023-05-10T01:15:28;98444.78;;;6.07;48.93
34081;BME280;20358;50.272;19.026;2023-05-10T01:18:39;98447.56;;;6.04;49.13
34081;BME280;20358;50.272;19.026;2023-05-10T01:21:53;98437.31;;;5.99;49.22
34081;BME280;20358;50.272;19.026;2023-05-10T01:25:28;98440.94;;;5.97;49.39
34081;BME280;20358;50.272;19.026;2023-05-10T01:32:57;98437.97;;;5.87;49.38
34081;BME280;20358;50.272;19.026;2023-05-10T01:36:21;98436.53;;;5.82;49.25
34081;BME280;20358;50.272;19.026;2023-05-10T01:39:44;98436.88;;;5.76;49.84
34081;BME280;20358;50.272;19.026;2023-05-10T01:43:01;98438.72;;;5.74;49.63
34081;BME280;20358;50.272;19.026;2023-05-10T01:46:14;98426.72;;;5.70;49.99
34081;BME280;20358;50.272;19.026;2023-05-10T01:49:30;98429.50;;;5.67;50.32
34081;BME280;20358;50.272;19.026;2023-05-10T01:52:42;98432.25;;;5.64;49.74
34081;BME280;20358;50.272;19.026;2023-05-10T01:55:55;98427.97;;;5.63;49.90
34081;BME280;20358;50.272;19.026;2023-05-10T01:59:08;98432.44;;;5.61;50.00
34081;BME280;20358;50.272;19.026;2023-05-10T02:02:20;98431.66;;;5.59;50.00
34081;BME280;20358;50.272;19.026;2023-05-10T02:05:33;98422.13;;;5.58;50.13
34081;BME280;20358;50.272;19.026;2023-05-10T02:08:43;98414.50;;;5.53;50.19
34081;BME280;20358;50.272;19.026;2023-05-10T02:11:50;98399.28;;;5.44;50.30
34081;BME280;20358;50.272;19.026;2023-05-10T02:14:59;98416.50;;;5.48;50.46
34081;BME280;20358;50.272;19.026;2023-05-10T02:18:11;98412.22;;;5.47;50.49
34081;BME280;20358;50.272;19.026;2023-05-10T02:21:22;98413.28;;;5.43;50.38
34081;BME280;20358;50.272;19.026;2023-05-10T02:24:32;98410.78;;;5.41;50.52
34081;BME280;20358;50.272;19.026;2023-05-10T02:27:41;98392.88;;;5.32;50.35
34081;BME280;20358;50.272;19.026;2023-05-10T02:30:51;98408.44;;;5.35;50.62
34081;BME280;20358;50.272;19.026;2023-05-10T02:34:00;98407.69;;;5.33;50.79
34081;BME280;20358;50.272;19.026;2023-05-10T02:37:12;98408.69;;;5.31;50.76
34081;BME280;20358;50.272;19.026;2023-05-10T02:40:22;98408.84;;;5.28;51.20
34081;BME280;20358;50.272;19.026;2023-05-10T02:43:33;98404.59;;;5.25;50.87
34081;BME280;20358;50.272;19.026;2023-05-10T02:46:41;98396.84;;;5.24;50.75
34081;BME280;20358;50.272;19.026;2023-05-10T02:49:47;98404.75;;;5.22;51.29
34081;BME280;20358;50.272;19.026;2023-05-10T02:53:01;98404.91;;;5.19;51.26
34081;BME280;20358;50.272;19.026;2023-05-10T02:56:25;98405.91;;;5.17;51.55
34081;BME280;20358;50.272;19.026;2023-05-10T02:59:38;98391.63;;;5.07;51.13
34081;BME280;20358;50.272;19.026;2023-05-10T03:02:45;98404.41;;;5.13;51.44
34081;BME280;20358;50.272;19.026;2023-05-10T03:05:51;98391.72;;;5.05;51.71
34081;BME280;20358;50.272;19.026;2023-05-10T03:09:02;98408.94;;;5.09;51.84
34081;BME280;20358;50.272;19.026;2023-05-10T03:12:18;98400.63;;;5.01;51.38
34081;BME280;20358;50.272;19.026;2023-05-10T03:15:41;98403.84;;;5.06;51.99
34081;BME280;20358;50.272;19.026;2023-05-10T03:18:59;98404.84;;;5.04;51.93
34081;BME280;20358;50.272;19.026;2023-05-10T03:22:11;98361.72;;;4.78;51.60
34081;BME280;20358;50.272;19.026;2023-05-10T03:25:29;98411.09;;;5.01;52.25
34081;BME280;20358;50.272;19.026;2023-05-10T03:28:39;98406.81;;;5.00;51.94
34081;BME280;20358;50.272;19.026;2023-05-10T03:31:47;98396.59;;;4.96;52.35
34081;BME280;20358;50.272;19.026;2023-05-10T03:34:53;98397.09;;;5.02;52.39
34081;BME280;20358;50.272;19.026;2023-05-10T03:38:01;98395.25;;;5.04;52.26
34081;BME280;20358;50.272;19.026;2023-05-10T03:41:09;98368.16;;;4.88;52.23
34081;BME280;20358;50.272;19.026;2023-05-10T03:44:16;98396.78;;;5.08;52.42
34081;BME280;20358;50.272;19.026;2023-05-10T03:47:21;98393.94;;;5.13;52.08
34081;BME280;20358;50.272;19.026;2023-05-10T03:50:28;98401.53;;;5.17;52.32
34081;BME280;20358;50.272;19.026;2023-05-10T03:53:34;98403.09;;;5.21;51.99
34081;BME280;20358;50.272;19.026;2023-05-10T03:56:43;98394.28;;;5.22;52.27
34081;BME280;20358;50.272;19.026;2023-05-10T03:59:51;98404.59;;;5.25;52.15
34081;BME280;20358;50.272;19.026;2023-05-10T04:02:58;98400.13;;;5.27;51.91
34081;BME280;20358;50.272;19.026;2023-05-10T04:06:04;98397.19;;;5.33;51.94
34081;BME280;20358;50.272;19.026;2023-05-10T04:09:14;98400.44;;;5.38;51.78
34081;BME280;20358;50.272;19.026;2023-05-10T04:12:22;98407.06;;;5.45;51.40
34081;BME280;20358;50.272;19.026;2023-05-10T04:15:29;98400.50;;;5.54;51.31
34081;BME280;20358;50.272;19.026;2023-05-10T04:18:34;98397.63;;;5.59;51.29
34081;BME280;20358;50.272;19.026;2023-05-10T04:21:42;98409.38;;;5.67;51.53
34081;BME280;20358;50.272;19.026;2023-05-10T04:24:48;98394.09;;;5.75;51.32
34081;BME280;20358;50.272;19.026;2023-05-10T04:27:57;98409.25;;;5.86;51.45
34081;BME280;20358;50.272;19.026;2023-05-10T04:31:03;98413.03;;;5.96;51.05
34081;BME280;20358;50.272;19.026;2023-05-10T04:34:10;98393.59;;;6.00;50.74
34081;BME280;20358;50.272;19.026;2023-05-10T04:37:16;98405.66;;;6.18;50.98
34081;BME280;20358;50.272;19.026;2023-05-10T04:40:24;98403.47;;;6.26;50.92
34081;BME280;20358;50.272;19.026;2023-05-10T04:43:34;98402.88;;;6.37;50.50
34081;BME280;20358;50.272;19.026;2023-05-10T04:46:41;98403.00;;;6.49;50.56
34081;BME280;20358;50.272;19.026;2023-05-10T04:49:47;98395.38;;;6.60;50.03
34081;BME280;20358;50.272;19.026;2023-05-10T04:52:54;98410.50;;;6.71;49.71
34081;BME280;20358;50.272;19.026;2023-05-10T04:55:59;98400.50;;;6.77;49.66
34081;BME280;20358;50.272;19.026;2023-05-10T04:59:09;98388.91;;;6.82;49.10
34081;BME280;20358;50.272;19.026;2023-05-10T05:02:15;98390.47;;;7.00;49.00
34081;BME280;20358;50.272;19.026;2023-05-10T05:05:21;98401.16;;;7.11;49.06
34081;BME280;20358;50.272;19.026;2023-05-10T05:08:27;98402.50;;;7.18;48.25
34081;BME280;20358;50.272;19.026;2023-05-10T05:11:34;98398.72;;;7.22;47.89
34081;BME280;20358;50.272;19.026;2023-05-10T05:14:43;98399.84;;;7.32;48.22
34081;BME280;20358;50.272;19.026;2023-05-10T05:17:49;98390.69;;;7.39;48.23
34081;BME280;20358;50.272;19.026;2023-05-10T05:20:55;98387.03;;;7.42;47.96
34081;BME280;20358;50.272;19.026;2023-05-10T05:24:02;98389.38;;;7.60;47.98
34081;BME280;20358;50.272;19.026;2023-05-10T05:27:08;98381.66;;;7.71;47.51
34081;BME280;20358;50.272;19.026;2023-05-10T05:30:18;98392.34;;;7.82;47.49
34081;BME280;20358;50.272;19.026;2023-05-10T05:33:24;98381.09;;;7.80;46.46
34081;BME280;20358;50.272;19.026;2023-05-10T05:36:32;98389.78;;;7.95;47.22
34081;BME280;20358;50.272;19.026;2023-05-10T05:39:43;98390.84;;;8.07;46.06
34081;BME280;20358;50.272;19.026;2023-05-10T05:42:50;98379.63;;;8.17;46.23
34081;BME280;20358;50.272;19.026;2023-05-10T05:46:01;98388.31;;;8.32;45.70
34081;BME280;20358;50.272;19.026;2023-05-10T05:49:09;98386.25;;;8.49;46.67
34081;BME280;20358;50.272;19.026;2023-05-10T05:52:15;98387.81;;;8.66;46.26
34081;BME280;20358;50.272;19.026;2023-05-10T05:55:22;98387.72;;;8.80;45.77
34081;BME280;20358;50.272;19.026;2023-05-10T05:58:29;98384.69;;;8.86;45.04
34081;BME280;20358;50.272;19.026;2023-05-10T06:01:39;98380.66;;;8.93;44.07
34081;BME280;20358;50.272;19.026;2023-05-10T06:04:45;98389.56;;;9.05;43.63
34081;BME280;20358;50.272;19.026;2023-05-10T06:07:52;98379.78;;;9.19;44.40
34081;BME280;20358;50.272;19.026;2023-05-10T06:10:58;98376.28;;;9.32;44.04
34081;BME280;20358;50.272;19.026;2023-05-10T06:14:07;98379.03;;;9.43;43.81
34081;BME280;20358;50.272;19.026;2023-05-10T06:17:17;98368.94;;;9.49;43.90
34081;BME280;20358;50.272;19.026;2023-05-10T06:20:25;98387.47;;;9.73;43.32
34081;BME280;20358;50.272;19.026;2023-05-10T06:23:31;98374.13;;;9.87;42.82
34081;BME280;20358;50.272;19.026;2023-05-10T06:26:39;98360.22;;;9.85;42.56
34081;BME280;20358;50.272;19.026;2023-05-10T06:29:45;98391.44;;;10.15;42.24
34081;BME280;20358;50.272;19.026;2023-05-10T06:33:01;98382.78;;;10.25;41.95
34081;BME280;20358;50.272;19.026;2023-05-10T06:36:07;98395.28;;;10.47;41.96
34081;BME280;20358;50.272;19.026;2023-05-10T06:39:14;98388.00;;;10.62;41.37
34081;BME280;20358;50.272;19.026;2023-05-10T06:42:21;98378.44;;;10.72;41.36
34081;BME280;20358;50.272;19.026;2023-05-10T06:45:28;98383.19;;;10.90;40.44
34081;BME280;20358;50.272;19.026;2023-05-10T06:48:37;98387.66;;;11.01;39.88
34081;BME280;20358;50.272;19.026;2023-05-10T06:51:43;98379.75;;;11.01;39.47
34081;BME280;20358;50.272;19.026;2023-05-10T06:54:49;98380.13;;;11.07;39.95
34081;BME280;20358;50.272;19.026;2023-05-10T06:57:56;98381.34;;;11.15;39.85
34081;BME280;20358;50.272;19.026;2023-05-10T07:01:02;98375.38;;;11.24;39.48
34081;BME280;20358;50.272;19.026;2023-05-10T07:04:13;98368.53;;;11.32;39.07
34081;BME280;20358;50.272;19.026;2023-05-10T07:07:19;98368.06;;;11.49;38.88
34081;BME280;20358;50.272;19.026;2023-05-10T07:10:26;98366.41;;;11.59;38.22
34081;BME280;20358;50.272;19.026;2023-05-10T07:13:32;98347.16;;;11.57;38.01
34081;BME280;20358;50.272;19.026;2023-05-10T07:16:39;98367.31;;;11.92;37.82
34081;BME280;20358;50.272;19.026;2023-05-10T07:19:49;98369.72;;;12.06;37.80
34081;BME280;20358;50.272;19.026;2023-05-10T07:22:55;98368.50;;;12.21;37.44
34081;BME280;20358;50.272;19.026;2023-05-10T07:26:01;98367.50;;;12.33;37.55
34081;BME280;20358;50.272;19.026;2023-05-10T07:29:08;98369.53;;;12.41;36.82
34081;BME280;20358;50.272;19.026;2023-05-10T07:32:14;98358.13;;;12.40;36.41
34081;BME280;20358;50.272;19.026;2023-05-10T07:35:23;98358.44;;;12.47;35.64
34081;BME280;20358;50.272;19.026;2023-05-10T07:38:29;98359.97;;;12.60;36.28
34081;BME280;20358;50.272;19.026;2023-05-10T07:41:35;98345.47;;;12.64;36.30
34081;BME280;20358;50.272;19.026;2023-05-10T07:44:42;98360.38;;;12.76;35.38
34081;BME280;20358;50.272;19.026;2023-05-10T07:47:49;98337.50;;;12.75;35.53
34081;BME280;20358;50.272;19.026;2023-05-10T07:50:58;98344.84;;;12.93;34.91
34081;BME280;20358;50.272;19.026;2023-05-10T07:54:05;98351.34;;;13.00;35.33
34081;BME280;20358;50.272;19.026;2023-05-10T07:57:10;98346.50;;;13.05;34.66
34081;BME280;20358;50.272;19.026;2023-05-10T08:00:19;98349.72;;;13.08;34.35
34081;BME280;20358;50.272;19.026;2023-05-10T08:03:25;98349.81;;;13.18;34.55
34081;BME280;20358;50.272;19.026;2023-05-10T08:06:35;98335.81;;;13.16;34.47
34081;BME280;20358;50.272;19.026;2023-05-10T08:09:40;98340.59;;;13.22;34.34
34081;BME280;20358;50.272;19.026;2023-05-10T08:12:47;98237.56;;;12.66;34.14
34081;BME280;20358;50.272;19.026;2023-05-10T08:15:52;98344.59;;;13.37;34.23
34081;BME280;20358;50.272;19.026;2023-05-10T08:18:59;98334.16;;;13.45;34.55
34081;BME280;20358;50.272;19.026;2023-05-10T08:22:08;98332.47;;;13.44;34.12
34081;BME280;20358;50.272;19.026;2023-05-10T08:25:15;98334.94;;;13.57;35.51
34081;BME280;20358;50.272;19.026;2023-05-10T08:28:21;98340.25;;;13.66;32.88
34081;BME280;20358;50.272;19.026;2023-05-10T08:31:27;98340.84;;;13.70;32.93
34081;BME280;20358;50.272;19.026;2023-05-10T08:34:33;98345.59;;;13.76;31.88
34081;BME280;20358;50.272;19.026;2023-05-10T08:37:42;98347.56;;;13.74;31.88
34081;BME280;20358;50.272;19.026;2023-05-10T08:40:49;98338.34;;;13.78;32.49
34081;BME280;20358;50.272;19.026;2023-05-10T08:44:04;98340.34;;;13.85;33.34
34081;BME280;20358;50.272;19.026;2023-05-10T08:47:11;98343.16;;;13.93;32.97
34081;BME280;20358;50.272;19.026;2023-05-10T08:50:24;98334.81;;;13.98;33.33
34081;BME280;20358;50.272;19.026;2023-05-10T08:53:37;98331.59;;;14.04;32.36
34081;BME280;20358;50.272;19.026;2023-05-10T08:56:43;98324.47;;;14.04;32.80
34081;BME280;20358;50.272;19.026;2023-05-10T08:59:50;98326.84;;;14.07;33.04
34081;BME280;20358;50.272;19.026;2023-05-10T09:02:57;98337.66;;;14.16;33.13
34081;BME280;20358;50.272;19.026;2023-05-10T09:06:04;98333.19;;;14.16;32.19
34081;BME280;20358;50.272;19.026;2023-05-10T09:09:14;98333.72;;;14.20;32.22
34081;BME280;20358;50.272;19.026;2023-05-10T09:12:21;98333.03;;;14.18;32.37
34081;BME280;20358;50.272;19.026;2023-05-10T09:15:28;98333.72;;;14.20;32.34
34081;BME280;20358;50.272;19.026;2023-05-10T09:18:34;98340.72;;;14.21;32.56
34081;BME280;20358;50.272;19.026;2023-05-10T09:21:41;98325.06;;;14.18;32.33
34081;BME280;20358;50.272;19.026;2023-05-10T09:25:03;98336.81;;;14.25;32.07
34081;BME280;20358;50.272;19.026;2023-05-10T09:28:11;98283.53;;;13.97;32.05
34081;BME280;20358;50.272;19.026;2023-05-10T09:31:17;98335.84;;;14.35;32.25
34081;BME280;20358;50.272;19.026;2023-05-10T09:34:29;98329.28;;;14.39;32.55
34081;BME280;20358;50.272;19.026;2023-05-10T09:37:38;98323.97;;;14.39;32.13
34081;BME280;20358;50.272;19.026;2023-05-10T09:40:53;98335.72;;;14.46;31.63
34081;BME280;20358;50.272;19.026;2023-05-10T09:43:59;98327.16;;;14.43;32.47
34081;BME280;20358;50.272;19.026;2023-05-10T09:47:06;98332.91;;;14.48;32.23
34081;BME280;20358;50.272;19.026;2023-05-10T09:50:12;98325.38;;;14.53;33.00
34081;BME280;20358;50.272;19.026;2023-05-10T09:53:19;98325.91;;;14.66;32.64
34081;BME280;20358;50.272;19.026;2023-05-10T09:56:38;98327.03;;;14.73;32.16
34081;BME280;20358;50.272;19.026;2023-05-10T09:59:45;98329.31;;;14.78;32.13
34081;BME280;20358;50.272;19.026;2023-05-10T10:02:56;98179.41;;;13.94;31.90
34081;BME280;20358;50.272;19.026;2023-05-10T10:06:07;98328.72;;;14.93;32.04
34081;BME280;20358;50.272;19.026;2023-05-10T10:09:34;98319.59;;;15.05;31.44
34081;BME280;20358;50.272;19.026;2023-05-10T10:12:44;98326.34;;;15.09;31.98
34081;BME280;20358;50.272;19.026;2023-05-10T10:15:52;98304.66;;;15.04;31.45
34081;BME280;20358;50.272;19.026;2023-05-10T10:19:00;98317.75;;;15.15;31.95
34081;BME280;20358;50.272;19.026;2023-05-10T10:22:06;98314.53;;;15.21;31.11
34081;BME280;20358;50.272;19.026;2023-05-10T10:25:16;98306.66;;;15.29;31.24
34081;BME280;20358;50.272;19.026;2023-05-10T10:28:48;98301.69;;;15.44;31.52
34081;BME280;20358;50.272;19.026;2023-05-10T10:32:11;98303.09;;;15.58;30.79
34081;BME280;20358;50.272;19.026;2023-05-10T10:35:28;98272.69;;;15.51;30.90
34081;BME280;20358;50.272;19.026;2023-05-10T10:38:38;98306.44;;;15.60;30.80
34081;BME280;20358;50.272;19.026;2023-05-10T10:42:02;98292.44;;;15.58;30.79
34081;BME280;20358;50.272;19.026;2023-05-10T10:45:14;98290.47;;;15.60;31.01
34081;BME280;20358;50.272;19.026;2023-05-10T10:48:21;98288.81;;;15.59;30.63
34081;BME280;20358;50.272;19.026;2023-05-10T10:51:29;98266.06;;;15.55;30.53
34081;BME280;20358;50.272;19.026;2023-05-10T10:54:35;98280.91;;;15.67;31.02
34081;BME280;20358;50.272;19.026;2023-05-10T10:57:47;98278.31;;;15.75;30.96
34081;BME280;20358;50.272;19.026;2023-05-10T11:01:10;98281.63;;;15.86;30.45
34081;BME280;20358;50.272;19.026;2023-05-10T11:04:18;98243.19;;;15.71;30.84
34081;BME280;20358;50.272;19.026;2023-05-10T11:07:25;98271.19;;;15.93;30.93
34081;BME280;20358;50.272;19.026;2023-05-10T11:10:32;98261.16;;;15.87;30.54
34081;BME280;20358;50.272;19.026;2023-05-10T11:13:42;98268.97;;;15.98;30.57
34081;BME280;20358;50.272;19.026;2023-05-10T11:16:56;98260.44;;;16.12;30.65
34081;BME280;20358;50.272;19.026;2023-05-10T11:20:08;98261.88;;;16.24;30.31
34081;BME280;20358;50.272;19.026;2023-05-10T11:23:16;98255.06;;;16.39;30.69
34081;BME280;20358;50.272;19.026;2023-05-10T11:26:23;98257.97;;;16.72;30.29
34081;BME280;20358;50.272;19.026;2023-05-10T11:29:31;98255.81;;;16.93;29.14
34081;BME280;20358;50.272;19.026;2023-05-10T11:32:40;98233.31;;;16.95;29.72
34081;BME280;20358;50.272;19.026;2023-05-10T11:35:47;98245.38;;;17.25;29.36
34081;BME280;20358;50.272;19.026;2023-05-10T11:38:54;98260.50;;;17.50;29.15
34081;BME280;20358;50.272;19.026;2023-05-10T11:42:01;98248.53;;;17.62;29.32
34081;BME280;20358;50.272;19.026;2023-05-10T11:45:09;98251.31;;;17.87;29.27
34081;BME280;20358;50.272;19.026;2023-05-10T11:48:19;98245.66;;;17.98;28.21
34081;BME280;20358;50.272;19.026;2023-05-10T11:51:26;98253.34;;;18.01;28.15
34081;BME280;20358;50.272;19.026;2023-05-10T11:54:32;98250.34;;;18.12;28.67
34081;BME280;20358;50.272;19.026;2023-05-10T11:57:38;98244.38;;;18.18;27.98
34081;BME280;20358;50.272;19.026;2023-05-10T12:00:48;98250.38;;;18.28;28.73
34081;BME280;20358;50.272;19.026;2023-05-10T12:03:59;98235.03;;;18.38;28.42
34081;BME280;20358;50.272;19.026;2023-05-10T12:07:07;98249.28;;;18.55;27.64
34081;BME280;20358;50.272;19.026;2023-05-10T12:10:14;98247.75;;;18.68;27.66
34081;BME280;20358;50.272;19.026;2023-05-10T12:13:21;98236.56;;;18.81;27.77
34081;BME280;20358;50.272;19.026;2023-05-10T12:16:29;98244.41;;;18.82;27.81
34081;BME280;20358;50.272;19.026;2023-05-10T12:19:41;98251.38;;;18.99;28.16
34081;BME280;20358;50.272;19.026;2023-05-10T12:22:49;98249.88;;;19.05;27.06
34081;BME280;20358;50.272;19.026;2023-05-10T12:26:02;98239.03;;;18.98;27.21
34081;BME280;20358;50.272;19.026;2023-05-10T12:29:12;98244.03;;;19.02;28.93
34081;BME280;20358;50.272;19.026;2023-05-10T12:32:20;98244.31;;;19.15;28.90
34081;BME280;20358;50.272;19.026;2023-05-10T12:35:44;98233.94;;;19.28;28.87
34081;BME280;20358;50.272;19.026;2023-05-10T12:39:02;98241.63;;;19.39;28.51
34081;BME280;20358;50.272;19.026;2023-05-10T12:42:09;98234.59;;;19.38;28.59
34081;BME280;20358;50.272;19.026;2023-05-10T12:45:17;98227.22;;;19.40;28.75
34081;BME280;20358;50.272;19.026;2023-05-10T12:48:24;98221.66;;;19.49;28.26
34081;BME280;20358;50.272;19.026;2023-05-10T12:51:34;98234.19;;;19.57;29.03
34081;BME280;20358;50.272;19.026;2023-05-10T12:54:40;98219.44;;;19.61;28.02
34081;BME280;20358;50.272;19.026;2023-05-10T12:57:46;98227.44;;;19.69;29.88
34081;BME280;20358;50.272;19.026;2023-05-10T13:00:52;98218.53;;;19.77;28.53
34081;BME280;20358;50.272;19.026;2023-05-10T13:03:59;98207.38;;;19.57;28.92
34081;BME280;20358;50.272;19.026;2023-05-10T13:07:08;98220.81;;;19.49;27.96
34081;BME280;20358;50.272;19.026;2023-05-10T13:10:18;98221.16;;;19.46;27.11
34081;BME280;20358;50.272;19.026;2023-05-10T13:13:25;98221.88;;;19.40;27.49
34081;BME280;20358;50.272;19.026;2023-05-10T13:16:32;98225.19;;;19.42;27.90
34081;BME280;20358;50.272;19.026;2023-05-10T13:19:38;98212.69;;;19.34;26.73
34081;BME280;20358;50.272;19.026;2023-05-10T13:22:49;98201.03;;;19.11;27.63
34081;BME280;20358;50.272;19.026;2023-05-10T13:25:55;98214.25;;;18.96;27.86
34081;BME280;20358;50.272;19.026;2023-05-10T13:29:02;98218.63;;;18.97;27.71
34081;BME280;20358;50.272;19.026;2023-05-10T13:32:08;98068.47;;;18.13;27.56
34081;BME280;20358;50.272;19.026;2023-05-10T13:35:15;98206.94;;;18.90;28.00
34081;BME280;20358;50.272;19.026;2023-05-10T13:38:24;98207.91;;;18.89;28.18
34081;BME280;20358;50.272;19.026;2023-05-10T13:41:30;98197.53;;;18.94;27.66
34081;BME280;20358;50.272;19.026;2023-05-10T13:44:36;98191.88;;;18.89;27.85
34081;BME280;20358;50.272;19.026;2023-05-10T13:47:43;98207.25;;;18.95;27.99
34081;BME280;20358;50.272;19.026;2023-05-10T13:50:49;98188.50;;;19.04;28.32
34081;BME280;20358;50.272;19.026;2023-05-10T13:53:59;98186.16;;;19.17;30.38
34081;BME280;20358;50.272;19.026;2023-05-10T13:57:04;98179.41;;;19.29;28.33
34081;BME280;20358;50.272;19.026;2023-05-10T14:00:12;98177.69;;;19.36;27.60
34081;BME280;20358;50.272;19.026;2023-05-10T14:03:18;98178.03;;;19.33;26.81
34081;BME280;20358;50.272;19.026;2023-05-10T14:06:25;98177.69;;;19.36;27.32
34081;BME280;20358;50.272;19.026;2023-05-10T14:09:34;98164.00;;;19.31;27.31
34081;BME280;20358;50.272;19.026;2023-05-10T14:12:40;98171.41;;;19.21;27.64
34081;BME280;20358;50.272;19.026;2023-05-10T14:15:46;98178.13;;;19.17;27.46
34081;BME280;20358;50.272;19.026;2023-05-10T14:18:53;98170.09;;;19.09;28.28
34081;BME280;20358;50.272;19.026;2023-05-10T14:21:59;98177.94;;;19.10;27.35
34081;BME280;20358;50.272;19.026;2023-05-10T14:25:10;98166.38;;;19.10;27.35
34081;BME280;20358;50.272;19.026;2023-05-10T14:28:17;98172.78;;;19.01;27.62
34081;BME280;20358;50.272;19.026;2023-05-10T14:31:25;98171.97;;;18.92;27.90
34081;BME280;20358;50.272;19.026;2023-05-10T14:34:32;98167.13;;;18.87;28.03
34081;BME280;20358;50.272;19.026;2023-05-10T14:37:39;98162.97;;;18.85;27.41
34081;BME280;20358;50.272;19.026;2023-05-10T14:40:47;98164.34;;;18.73;27.41
34081;BME280;20358;50.272;19.026;2023-05-10T14:43:54;98167.88;;;18.65;27.51
34081;BME280;20358;50.272;19.026;2023-05-10T14:46:59;98162.50;;;18.65;27.59
34081;BME280;20358;50.272;19.026;2023-05-10T14:50:07;98165.50;;;18.70;27.44
34081;BME280;20358;50.272;19.026;2023-05-10T14:53:25;98158.81;;;18.74;28.32
34081;BME280;20358;50.272;19.026;2023-05-10T14:56:35;98159.78;;;18.81;28.34
34081;BME280;20358;50.272;19.026;2023-05-10T14:59:43;98155.44;;;18.80;27.75
34081;BME280;20358;50.272;19.026;2023-05-10T15:02:53;98163.16;;;18.75;27.59
34081;BME280;20358;50.272;19.026;2023-05-10T15:05:59;98159.00;;;18.57;28.12
34081;BME280;20358;50.272;19.026;2023-05-10T15:09:06;98160.50;;;18.35;28.24
34081;BME280;20358;50.272;19.026;2023-05-10T15:12:14;98169.53;;;18.26;28.38
34081;BME280;20358;50.272;19.026;2023-05-10T15:15:21;98157.16;;;18.25;28.21
34081;BME280;20358;50.272;19.026;2023-05-10T15:18:27;98160.66;;;18.17;28.39
34081;BME280;20358;50.272;19.026;2023-05-10T15:21:34;98153.47;;;18.02;28.34
34081;BME280;20358;50.272;19.026;2023-05-10T15:24:41;98152.47;;;17.95;28.99
34081;BME280;20358;50.272;19.026;2023-05-10T15:27:50;98151.81;;;17.85;29.01
34081;BME280;20358;50.272;19.026;2023-05-10T15:30:56;98154.81;;;17.82;28.44
34081;BME280;20358;50.272;19.026;2023-05-10T15:34:03;98159.47;;;17.80;29.01
34081;BME280;20358;50.272;19.026;2023-05-10T15:37:09;98152.13;;;17.82;28.90
34081;BME280;20358;50.272;19.026;2023-05-10T15:40:16;98149.28;;;17.83;29.15
34081;BME280;20358;50.272;19.026;2023-05-10T15:43:24;98152.13;;;17.82;29.17
34081;BME280;20358;50.272;19.026;2023-05-10T15:46:31;98157.81;;;17.87;29.17
34081;BME280;20358;50.272;19.026;2023-05-10T15:49:37;98148.97;;;17.86;28.98
34081;BME280;20358;50.272;19.026;2023-05-10T15:52:44;98160.50;;;17.87;29.39
34081;BME280;20358;50.272;19.026;2023-05-10T15:55:49;98160.97;;;17.90;29.51
34081;BME280;20358;50.272;19.026;2023-05-10T15:59:00;98160.16;;;17.90;29.09
34081;BME280;20358;50.272;19.026;2023-05-10T16:02:08;98161.50;;;17.94;28.88
34081;BME280;20358;50.272;19.026;2023-05-10T16:05:16;98157.81;;;17.95;29.62
34081;BME280;20358;50.272;19.026;2023-05-10T16:08:22;98157.16;;;17.93;29.01
34081;BME280;20358;50.272;19.026;2023-05-10T16:11:29;98161.13;;;17.81;29.16
34081;BME280;20358;50.272;19.026;2023-05-10T16:14:37;98161.75;;;17.66;29.29
34081;BME280;20358;50.272;19.026;2023-05-10T16:17:44;98159.56;;;17.62;29.67
34081;BME280;20358;50.272;19.026;2023-05-10T16:20:50;98166.75;;;17.61;29.88
34081;BME280;20358;50.272;19.026;2023-05-10T16:23:58;98114.06;;;17.22;29.83
34081;BME280;20358;50.272;19.026;2023-05-10T16:27:04;98155.00;;;17.38;30.04
34081;BME280;20358;50.272;19.026;2023-05-10T16:30:14;98167.34;;;17.39;30.21
34081;BME280;20358;50.272;19.026;2023-05-10T16:33:23;98163.00;;;17.30;30.22
34081;BME280;20358;50.272;19.026;2023-05-10T16:36:29;98160.94;;;17.24;30.39